sensor_id;sensor_type;location;lat;lon;timestamp;pressure;altitude;pressure_sealevel;temperature;humidity
27210;BME280;14721;42.668;23.386;2023-04-21T00:01:13;94912.75;;;9.44;100.00
27210;BME280;14721;42.668;23.386;2023-04-21T00:03:39;94912.13;;;9.40;100.00
27210;BME280;14721;42.668;23.386;2023-04-21T00:06:06;94897.94;;;9.40;100.00
27210;BME280;14721;42.668;23.386;2023-04-21T00:08:34;94898.03;;;9.27;100.00
27210;BME280;14721;42.668;23.386;2023-04-21T00:11:08;94889.28;;;9.25;100.00
27210;BME280;14721;42.668;23.386;2023-04-21T00:13:34;94900.72;;;9.38;100.00
27210;BME280;14721;42.668;23.386;2023-04-21T00:16:01;94900.88;;;9.48;100.00
27210;BME280;14721;42.668;23.386;2023-04-21T00:18:27;94899.28;;;9.45;100.00
27210;BME280;14721;42.668;23.386;2023-04-21T00:20:53;94900.13;;;9.46;100.00
27210;BME280;14721;42.668;23.386;2023-04-21T00:23:18;94894.31;;;9.41;100.00
27210;BME280;14721;42.668;23.386;2023-04-21T00:25:44;94897.16;;;9.27;100.00
27210;BME280;14721;42.668;23.386;2023-04-21T00:28:09;94898.38;;;9.23;100.00
27210;BME280;14721;42.668;23.386;2023-04-21T00:30:35;94904.13;;;9.06;100.00
27210;BME280;14721;42.668;23.386;2023-04-21T00:33:00;94905.56;;;8.99;100.00
27210;BME280;14721;42.668;23.386;2023-04-21T00:35:26;94904.69;;;8.98;100.00
27210;BME280;14721;42.668;23.386;2023-04-21T00:37:51;94912.38;;;8.90;100.00
27210;BME280;14721;42.668;23.386;2023-04-21T00:40:17;94905.47;;;8.88;100.00
27210;BME280;14721;42.668;23.386;2023-04-21T00:42:43;94907.41;;;8.86;100.00
27210;BME280;14721;42.668;23.386;2023-04-21T00:45:12;94911.72;;;8.76;100.00
27210;BME280;14721;42.668;23.386;2023-04-21T00:47:40;94901.75;;;8.67;100.00
27210;BME280;14721;42.668;23.386;2023-04-21T00:50:05;94905.81;;;8.60;100.00
27210;BME280;14721;42.668;23.386;2023-04-21T00:52:32;94902.81;;;8.64;100.00
27210;BME280;14721;42.668;23.386;2023-04-21T00:54:58;94889.66;;;8.74;100.00
27210;BME280;14721;42.668;23.386;2023-04-21T00:57:24;94898.69;;;8.84;100.00
27210;BME280;14721;42.668;23.386;2023-04-21T00:59:50;94888.06;;;8.95;100.00
27210;BME280;14721;42.668;23.386;2023-04-21T01:02:16;94894.03;;;8.98;100.00
27210;BME280;14721;42.668;23.386;2023-04-21T01:04:43;94892.06;;;8.89;100.00
27210;BME280;14721;42.668;23.386;2023-04-21T01:07:10;94892.50;;;8.83;100.00
27210;BME280;14721;42.668;23.386;2023-04-21T01:09:35;94892.00;;;8.78;100.00
27210;BME280;14721;42.668;23.386;2023-04-21T01:12:05;94880.22;;;8.46;100.00
27210;BME280;14721;42.668;23.386;2023-04-21T01:14:31;94892.53;;;8.47;100.00
27210;BME280;14721;42.668;23.386;2023-04-21T01:16:56;94897.63;;;8.27;100.00
27210;BME280;14721;42.668;23.386;2023-04-21T01:19:23;94899.31;;;8.28;100.00
27210;BME280;14721;42.668;23.386;2023-04-21T01:21:52;94892.28;;;8.14;100.00
27210;BME280;14721;42.668;23.386;2023-04-21T01:24:45;94894.41;;;8.09;100.00
27210;BME280;14721;42.668;23.386;2023-04-21T01:27:11;94893.59;;;8.09;100.00
27210;BME280;14721;42.668;23.386;2023-04-21T01:29:45;94897.13;;;7.97;100.00
27210;BME280;14721;42.668;23.386;2023-04-21T01:32:19;94897.13;;;7.97;100.00
27210;BME280;14721;42.668;23.386;2023-04-21T01:34:45;94896.75;;;8.14;100.00
27210;BME280;14721;42.668;23.386;2023-04-21T01:37:14;94891.84;;;8.33;100.00
27210;BME280;14721;42.668;23.386;2023-04-21T01:39:43;94884.66;;;8.46;100.00
27210;BME280;14721;42.668;23.386;2023-04-21T01:42:10;94891.75;;;8.58;100.00
27210;BME280;14721;42.668;23.386;2023-04-21T01:44:36;94885.88;;;8.42;100.00
27210;BME280;14721;42.668;23.386;2023-04-21T01:47:04;94884.25;;;8.39;100.00
27210;BME280;14721;42.668;23.386;2023-04-21T01:49:30;94877.16;;;8.27;100.00
27210;BME280;14721;42.668;23.386;2023-04-21T01:51:56;94873.78;;;8.25;100.00
27210;BME280;14721;42.668;23.386;2023-04-21T01:54:22;94868.44;;;8.13;100.00
27210;BME280;14721;42.668;23.386;2023-04-21T01:56:47;94879.50;;;8.19;100.00
27210;BME280;14721;42.668;23.386;2023-04-21T01:59:13;94878.00;;;8.15;100.00
27210;BME280;14721;42.668;23.386;2023-04-21T02:01:38;94882.19;;;8.07;100.00
27210;BME280;14721;42.668;23.386;2023-04-21T02:04:04;94884.25;;;7.91;100.00
27210;BME280;14721;42.668;23.386;2023-04-21T02:06:31;94889.75;;;8.00;100.00
27210;BME280;14721;42.668;23.386;2023-04-21T02:08:57;94888.81;;;8.01;100.00
27210;BME280;14721;42.668;23.386;2023-04-21T02:11:25;94881.69;;;7.89;100.00
27210;BME280;14721;42.668;23.386;2023-04-21T02:13:54;94878.72;;;7.94;100.00
27210;BME280;14721;42.668;23.386;2023-04-21T02:16:20;94871.56;;;7.94;100.00
27210;BME280;14721;42.668;23.386;2023-04-21T02:18:50;94863.78;;;8.04;100.00
27210;BME280;14721;42.668;23.386;2023-04-21T02:21:16;94867.03;;;8.20;100.00
27210;BME280;14721;42.668;23.386;2023-04-21T02:23:41;94877.50;;;8.10;100.00
27210;BME280;14721;42.668;23.386;2023-04-21T02:26:07;94880.38;;;8.07;100.00
27210;BME280;14721;42.668;23.386;2023-04-21T02:28:33;94873.91;;;7.99;100.00
27210;BME280;14721;42.668;23.386;2023-04-21T02:30:59;94876.88;;;7.94;100.00
27210;BME280;14721;42.668;23.386;2023-04-21T02:33:24;94872.66;;;7.79;100.00
27210;BME280;14721;42.668;23.386;2023-04-21T02:35:50;94875.72;;;7.73;100.00
27210;BME280;14721;42.668;23.386;2023-04-21T02:38:15;94877.66;;;7.58;100.00
27210;BME280;14721;42.668;23.386;2023-04-21T02:40:41;94881.09;;;7.60;100.00
27210;BME280;14721;42.668;23.386;2023-04-21T02:43:07;94882.66;;;7.63;100.00
27210;BME280;14721;42.668;23.386;2023-04-21T02:45:32;94880.66;;;7.54;100.00
27210;BME280;14721;42.668;23.386;2023-04-21T02:47:58;94884.91;;;7.56;100.00
27210;BME280;14721;42.668;23.386;2023-04-21T02:50:24;94874.72;;;7.50;100.00
27210;BME280;14721;42.668;23.386;2023-04-21T02:52:50;94880.44;;;7.44;100.00
27210;BME280;14721;42.668;23.386;2023-04-21T02:55:15;94881.63;;;7.53;100.00
27210;BME280;14721;42.668;23.386;2023-04-21T02:57:41;94885.97;;;7.66;100.00
27210;BME280;14721;42.668;23.386;2023-04-21T03:00:07;94882.03;;;7.85;100.00
27210;BME280;14721;42.668;23.386;2023-04-21T03:02:43;94880.94;;;7.87;100.00
27210;BME280;14721;42.668;23.386;2023-04-21T03:05:17;94885.31;;;7.76;100.00
27210;BME280;14721;42.668;23.386;2023-04-21T03:07:44;94875.63;;;7.74;100.00
27210;BME280;14721;42.668;23.386;2023-04-21T03:10:10;94880.50;;;7.81;100.00
27210;BME280;14721;42.668;23.386;2023-04-21T03:12:36;94880.84;;;7.76;100.00
27210;BME280;14721;42.668;23.386;2023-04-21T03:15:01;94877.34;;;7.76;100.00
27210;BME280;14721;42.668;23.386;2023-04-21T03:17:27;94881.31;;;7.70;100.00
27210;BME280;14721;42.668;23.386;2023-04-21T03:19:52;94889.13;;;7.71;100.00
27210;BME280;14721;42.668;23.386;2023-04-21T03:22:18;94884.78;;;7.70;99.75
27210;BME280;14721;42.668;23.386;2023-04-21T03:24:43;94887.66;;;7.67;99.55
27210;BME280;14721;42.668;23.386;2023-04-21T03:27:09;94889.91;;;7.61;99.64
27210;BME280;14721;42.668;23.386;2023-04-21T03:29:35;94893.41;;;7.61;99.87
27210;BME280;14721;42.668;23.386;2023-04-21T03:32:00;94892.69;;;7.59;100.00
27210;BME280;14721;42.668;23.386;2023-04-21T03:34:26;94897.00;;;7.73;100.00
27210;BME280;14721;42.668;23.386;2023-04-21T03:36:52;94896.03;;;7.87;100.00
27210;BME280;14721;42.668;23.386;2023-04-21T03:39:19;94899.72;;;8.09;100.00
27210;BME280;14721;42.668;23.386;2023-04-21T03:41:44;94896.31;;;8.20;100.00
27210;BME280;14721;42.668;23.386;2023-04-21T03:44:10;94897.19;;;8.33;100.00
27210;BME280;14721;42.668;23.386;2023-04-21T03:46:35;94890.34;;;8.29;99.21
27210;BME280;14721;42.668;23.386;2023-04-21T03:49:01;94903.03;;;8.13;99.10
27210;BME280;14721;42.668;23.386;2023-04-21T03:51:27;94908.38;;;8.25;99.62
27210;BME280;14721;42.668;23.386;2023-04-21T03:53:52;94911.03;;;8.25;100.00
27210;BME280;14721;42.668;23.386;2023-04-21T03:56:18;94913.03;;;8.22;100.00
27210;BME280;14721;42.668;23.386;2023-04-21T03:58:43;94910.72;;;8.30;100.00
27210;BME280;14721;42.668;23.386;2023-04-21T04:01:11;94907.50;;;8.37;100.00
27210;BME280;14721;42.668;23.386;2023-04-21T04:03:37;94910.53;;;8.44;99.67
27210;BME280;14721;42.668;23.386;2023-04-21T04:06:02;94922.34;;;8.52;99.00
27210;BME280;14721;42.668;23.386;2023-04-21T04:08:28;94923.28;;;8.64;98.65
27210;BME280;14721;42.668;23.386;2023-04-21T04:10:55;94918.97;;;8.74;98.04
27210;BME280;14721;42.668;23.386;2023-04-21T04:13:21;94922.34;;;8.88;98.49
27210;BME280;14721;42.668;23.386;2023-04-21T04:15:47;94919.66;;;9.12;97.92
27210;BME280;14721;42.668;23.386;2023-04-21T04:18:12;94918.72;;;9.24;97.17
27210;BME280;14721;42.668;23.386;2023-04-21T04:20:38;94927.25;;;9.40;96.32
27210;BME280;14721;42.668;23.386;2023-04-21T04:23:03;94931.19;;;9.58;95.41
27210;BME280;14721;42.668;23.386;2023-04-21T04:25:29;94918.47;;;9.62;93.87
27210;BME280;14721;42.668;23.386;2023-04-21T04:27:55;94943.22;;;9.75;93.40
27210;BME280;14721;42.668;23.386;2023-04-21T04:30:21;94939.16;;;9.93;92.60
27210;BME280;14721;42.668;23.386;2023-04-21T04:32:48;94933.44;;;9.75;91.48
27210;BME280;14721;42.668;23.386;2023-04-21T04:35:13;94946.25;;;9.59;89.28
27210;BME280;14721;42.668;23.386;2023-04-21T04:37:40;94952.81;;;9.66;89.37
27210;BME280;14721;42.668;23.386;2023-04-21T04:40:06;94947.63;;;9.87;89.21
27210;BME280;14721;42.668;23.386;2023-04-21T04:42:38;94961.09;;;9.85;88.28
27210;BME280;14721;42.668;23.386;2023-04-21T04:45:05;94948.97;;;10.03;88.88
27210;BME280;14721;42.668;23.386;2023-04-21T04:47:36;94951.72;;;10.47;86.70
27210;BME280;14721;42.668;23.386;2023-04-21T04:50:02;94964.81;;;10.72;84.82
27210;BME280;14721;42.668;23.386;2023-04-21T04:52:28;94956.66;;;10.63;84.53
27210;BME280;14721;42.668;23.386;2023-04-21T04:54:53;94952.56;;;10.70;85.38
27210;BME280;14721;42.668;23.386;2023-04-21T04:57:19;94959.91;;;10.88;84.51
27210;BME280;14721;42.668;23.386;2023-04-21T04:59:45;94954.66;;;11.09;83.12
27210;BME280;14721;42.668;23.386;2023-04-21T05:02:11;94948.69;;;11.16;82.22
27210;BME280;14721;42.668;23.386;2023-04-21T05:04:37;94959.84;;;11.21;81.44
27210;BME280;14721;42.668;23.386;2023-04-21T05:07:02;94961.03;;;11.28;80.77
27210;BME280;14721;42.668;23.386;2023-04-21T05:09:30;94959.53;;;11.47;80.90
27210;BME280;14721;42.668;23.386;2023-04-21T05:11:56;94962.47;;;11.96;79.55
27210;BME280;14721;42.668;23.386;2023-04-21T05:14:21;94958.53;;;12.20;77.70
27210;BME280;14721;42.668;23.386;2023-04-21T05:16:47;94960.91;;;12.44;76.64
27210;BME280;14721;42.668;23.386;2023-04-21T05:19:12;94961.63;;;13.15;74.15
27210;BME280;14721;42.668;23.386;2023-04-21T05:21:37;94957.81;;;13.18;72.70
27210;BME280;14721;42.668;23.386;2023-04-21T05:24:03;94965.59;;;13.11;72.07
27210;BME280;14721;42.668;23.386;2023-04-21T05:26:28;94966.69;;;12.99;73.59
27210;BME280;14721;42.668;23.386;2023-04-21T05:28:55;94955.72;;;12.82;73.22
27210;BME280;14721;42.668;23.386;2023-04-21T05:31:22;94955.13;;;12.78;74.46
27210;BME280;14721;42.668;23.386;2023-04-21T05:33:47;94960.06;;;12.73;73.70
27210;BME280;14721;42.668;23.386;2023-04-21T05:36:13;94959.00;;;12.95;73.46
27210;BME280;14721;42.668;23.386;2023-04-21T05:38:39;94950.78;;;13.93;71.10
27210;BME280;14721;42.668;23.386;2023-04-21T05:41:04;94950.38;;;15.27;67.50
27210;BME280;14721;42.668;23.386;2023-04-21T05:43:30;94947.69;;;16.32;63.31
27210;BME280;14721;42.668;23.386;2023-04-21T05:46:02;94951.84;;;16.95;59.86
27210;BME280;14721;42.668;23.386;2023-04-21T05:48:32;94952.13;;;17.51;57.82
27210;BME280;14721;42.668;23.386;2023-04-21T05:51:10;94946.47;;;18.02;56.33
27210;BME280;14721;42.668;23.386;2023-04-21T05:53:39;94938.19;;;18.12;55.10
27210;BME280;14721;42.668;23.386;2023-04-21T05:56:07;94939.47;;;19.04;51.06
27210;BME280;14721;42.668;23.386;2023-04-21T05:58:33;94937.00;;;19.72;49.45
27210;BME280;14721;42.668;23.386;2023-04-21T06:00:58;94925.16;;;19.95;49.01
27210;BME280;14721;42.668;23.386;2023-04-21T06:03:24;94931.09;;;20.21;46.17
27210;BME280;14721;42.668;23.386;2023-04-21T06:05:56;94914.28;;;20.78;44.84
27210;BME280;14721;42.668;23.386;2023-04-21T06:08:22;94923.38;;;21.07;43.35
27210;BME280;14721;42.668;23.386;2023-04-21T06:10:48;94912.88;;;21.04;43.51
27210;BME280;14721;42.668;23.386;2023-04-21T06:13:13;94923.25;;;21.15;43.44
27210;BME280;14721;42.668;23.386;2023-04-21T06:15:39;94917.19;;;20.76;43.26
27210;BME280;14721;42.668;23.386;2023-04-21T06:18:04;94907.53;;;20.44;44.46
27210;BME280;14721;42.668;23.386;2023-04-21T06:20:30;94920.06;;;20.45;44.69
27210;BME280;14721;42.668;23.386;2023-04-21T06:22:55;94916.41;;;20.16;44.72
27210;BME280;14721;42.668;23.386;2023-04-21T06:25:21;94921.03;;;20.30;44.67
27210;BME280;14721;42.668;23.386;2023-04-21T06:27:46;94921.16;;;20.88;43.81
27210;BME280;14721;42.668;23.386;2023-04-21T06:30:13;94921.69;;;21.71;42.42
27210;BME280;14721;42.668;23.386;2023-04-21T06:32:38;94911.81;;;21.78;41.10
27210;BME280;14721;42.668;23.386;2023-04-21T06:35:04;94909.44;;;22.10;40.92
27210;BME280;14721;42.668;23.386;2023-04-21T06:37:30;94911.47;;;22.44;39.94
27210;BME280;14721;42.668;23.386;2023-04-21T06:39:56;94905.47;;;22.76;39.50
27210;BME280;14721;42.668;23.386;2023-04-21T06:42:21;94917.81;;;22.51;39.60
27210;BME280;14721;42.668;23.386;2023-04-21T06:44:46;94897.28;;;22.27;40.00
27210;BME280;14721;42.668;23.386;2023-04-21T06:47:12;94915.38;;;22.42;39.85
27210;BME280;14721;42.668;23.386;2023-04-21T06:49:37;94910.88;;;22.27;40.19
27210;BME280;14721;42.668;23.386;2023-04-21T06:52:03;94909.00;;;21.42;41.19
27210;BME280;14721;42.668;23.386;2023-04-21T06:54:29;94914.28;;;20.26;43.41
27210;BME280;14721;42.668;23.386;2023-04-21T06:56:54;94912.34;;;20.34;43.86
27210;BME280;14721;42.668;23.386;2023-04-21T06:59:21;94910.97;;;21.05;43.45
27210;BME280;14721;42.668;23.386;2023-04-21T07:01:47;94911.44;;;21.52;41.49
27210;BME280;14721;42.668;23.386;2023-04-21T07:04:17;94900.41;;;21.89;41.67
27210;BME280;14721;42.668;23.386;2023-04-21T07:06:43;94889.59;;;21.95;40.20
27210;BME280;14721;42.668;23.386;2023-04-21T07:09:08;94904.38;;;22.07;40.37
27210;BME280;14721;42.668;23.386;2023-04-21T07:11:34;94906.00;;;22.02;40.55
27210;BME280;14721;42.668;23.386;2023-04-21T07:13:59;94902.38;;;22.16;40.15
27210;BME280;14721;42.668;23.386;2023-04-21T07:16:27;94899.31;;;22.04;39.82
27210;BME280;14721;42.668;23.386;2023-04-21T07:18:52;94888.44;;;22.47;39.61
27210;BME280;14721;42.668;23.386;2023-04-21T07:21:18;94899.97;;;22.49;39.98
27210;BME280;14721;42.668;23.386;2023-04-21T07:23:43;94889.53;;;22.10;40.77
27210;BME280;14721;42.668;23.386;2023-04-21T07:26:09;94898.47;;;22.04;40.93
27210;BME280;14721;42.668;23.386;2023-04-21T07:28:36;94895.13;;;22.02;41.06
27210;BME280;14721;42.668;23.386;2023-04-21T07:31:03;94887.97;;;22.43;40.30
27210;BME280;14721;42.668;23.386;2023-04-21T07:33:28;94888.97;;;22.57;39.00
27210;BME280;14721;42.668;23.386;2023-04-21T07:35:54;94897.44;;;22.47;39.49
27210;BME280;14721;42.668;23.386;2023-04-21T07:38:19;94890.28;;;22.61;38.70
27210;BME280;14721;42.668;23.386;2023-04-21T07:40:45;94888.97;;;22.84;38.33
27210;BME280;14721;42.668;23.386;2023-04-21T07:43:10;94889.38;;;22.81;38.61
27210;BME280;14721;42.668;23.386;2023-04-21T07:45:35;94888.78;;;23.54;37.81
27210;BME280;14721;42.668;23.386;2023-04-21T07:48:01;94897.56;;;23.43;37.29
27210;BME280;14721;42.668;23.386;2023-04-21T07:50:26;94897.09;;;22.50;38.67
27210;BME280;14721;42.668;23.386;2023-04-21T07:52:52;94894.81;;;22.54;38.94
27210;BME280;14721;42.668;23.386;2023-04-21T07:55:17;94891.91;;;22.83;38.84
27210;BME280;14721;42.668;23.386;2023-04-21T07:57:43;94910.22;;;22.04;39.15
27210;BME280;14721;42.668;23.386;2023-04-21T08:00:09;94907.19;;;22.35;39.01
27210;BME280;14721;42.668;23.386;2023-04-21T08:02:35;94906.56;;;21.76;39.85
27210;BME280;14721;42.668;23.386;2023-04-21T08:05:00;94900.75;;;22.00;40.06
27210;BME280;14721;42.668;23.386;2023-04-21T08:07:25;94905.09;;;22.37;39.04
27210;BME280;14721;42.668;23.386;2023-04-21T08:09:51;94895.41;;;21.42;40.60
27210;BME280;14721;42.668;23.386;2023-04-21T08:12:16;94907.19;;;20.77;42.60
27210;BME280;14721;42.668;23.386;2023-04-21T08:14:42;94887.72;;;20.36;43.04
27210;BME280;14721;42.668;23.386;2023-04-21T08:17:07;94892.78;;;19.94;44.40
27210;BME280;14721;42.668;23.386;2023-04-21T08:19:33;94901.22;;;19.46;45.47
27210;BME280;14721;42.668;23.386;2023-04-21T08:21:58;94897.75;;;19.29;46.05
27210;BME280;14721;42.668;23.386;2023-04-21T08:24:24;94892.47;;;19.36;45.99
27210;BME280;14721;42.668;23.386;2023-04-21T08:26:49;94899.09;;;19.25;45.50
27210;BME280;14721;42.668;23.386;2023-04-21T08:29:15;94902.59;;;18.95;46.42
27210;BME280;14721;42.668;23.386;2023-04-21T08:31:40;94894.91;;;19.15;46.08
27210;BME280;14721;42.668;23.386;2023-04-21T08:34:06;94890.63;;;20.12;44.40
27210;BME280;14721;42.668;23.386;2023-04-21T08:36:32;94894.41;;;21.29;41.94
27210;BME280;14721;42.668;23.386;2023-04-21T08:38:57;94889.31;;;21.55;41.42
27210;BME280;14721;42.668;23.386;2023-04-21T08:41:24;94875.13;;;21.74;40.94
27210;BME280;14721;42.668;23.386;2023-04-21T08:43:50;94878.22;;;22.06;40.27
27210;BME280;14721;42.668;23.386;2023-04-21T08:46:15;94892.31;;;21.60;40.22
27210;BME280;14721;42.668;23.386;2023-04-21T08:48:41;94890.28;;;21.18;40.68
27210;BME280;14721;42.668;23.386;2023-04-21T08:51:08;94894.78;;;21.40;40.80
27210;BME280;14721;42.668;23.386;2023-04-21T08:53:37;94891.41;;;21.09;41.36
27210;BME280;14721;42.668;23.386;2023-04-21T08:56:05;94884.75;;;21.26;41.82
27210;BME280;14721;42.668;23.386;2023-04-21T08:58:31;94877.72;;;21.32;42.42
27210;BME280;14721;42.668;23.386;2023-04-21T09:00:56;94880.44;;;21.46;41.17
27210;BME280;14721;42.668;23.386;2023-04-21T09:03:26;94873.53;;;21.79;40.66
27210;BME280;14721;42.668;23.386;2023-04-21T09:06:02;94866.56;;;21.91;39.56
27210;BME280;14721;42.668;23.386;2023-04-21T09:08:29;94865.03;;;21.89;39.61
27210;BME280;14721;42.668;23.386;2023-04-21T09:10:56;94855.22;;;21.88;39.95
27210;BME280;14721;42.668;23.386;2023-04-21T09:13:29;94856.50;;;21.92;40.24
27210;BME280;14721;42.668;23.386;2023-04-21T09:15:55;94863.66;;;21.78;39.65
27210;BME280;14721;42.668;23.386;2023-04-21T09:18:22;94858.06;;;22.01;38.95
27210;BME280;14721;42.668;23.386;2023-04-21T09:20:51;94851.66;;;21.37;40.30
27210;BME280;14721;42.668;23.386;2023-04-21T09:23:17;94846.22;;;20.50;40.81
27210;BME280;14721;42.668;23.386;2023-04-21T09:25:44;94851.31;;;20.16;42.16
27210;BME280;14721;42.668;23.386;2023-04-21T09:28:11;94842.66;;;19.67;43.25
27210;BME280;14721;42.668;23.386;2023-04-21T09:30:38;94850.09;;;19.43;43.96
27210;BME280;14721;42.668;23.386;2023-04-21T09:33:04;94843.84;;;19.42;44.20
27210;BME280;14721;42.668;23.386;2023-04-21T09:35:35;94853.44;;;19.53;44.30
27210;BME280;14721;42.668;23.386;2023-04-21T09:38:02;94847.22;;;19.67;44.88
27210;BME280;14721;42.668;23.386;2023-04-21T09:40:31;94846.06;;;19.92;43.06
27210;BME280;14721;42.668;23.386;2023-04-21T09:42:56;94839.78;;;20.14;42.49
27210;BME280;14721;42.668;23.386;2023-04-21T09:45:25;94842.47;;;20.36;42.07
27210;BME280;14721;42.668;23.386;2023-04-21T09:47:57;94829.25;;;20.19;41.62
27210;BME280;14721;42.668;23.386;2023-04-21T09:50:25;94839.63;;;20.30;40.63
27210;BME280;14721;42.668;23.386;2023-04-21T09:52:52;94832.28;;;20.38;39.45
27210;BME280;14721;42.668;23.386;2023-04-21T09:55:23;94832.19;;;19.87;40.33
27210;BME280;14721;42.668;23.386;2023-04-21T09:57:51;94826.19;;;19.77;40.43
27210;BME280;14721;42.668;23.386;2023-04-21T10:00:25;94827.97;;;19.62;41.35
27210;BME280;14721;42.668;23.386;2023-04-21T10:02:52;94821.56;;;19.55;42.44
27210;BME280;14721;42.668;23.386;2023-04-21T10:05:18;94822.66;;;19.46;42.21
27210;BME280;14721;42.668;23.386;2023-04-21T10:07:45;94823.22;;;19.03;42.83
27210;BME280;14721;42.668;23.386;2023-04-21T10:10:25;94823.56;;;19.00;42.64
27210;BME280;14721;42.668;23.386;2023-04-21T10:12:54;94822.75;;;19.22;42.85
27210;BME280;14721;42.668;23.386;2023-04-21T10:15:40;94809.41;;;19.51;42.70
27210;BME280;14721;42.668;23.386;2023-04-21T10:18:18;94817.78;;;19.64;41.60
27210;BME280;14721;42.668;23.386;2023-04-21T10:23:39;94816.81;;;19.57;42.70
27210;BME280;14721;42.668;23.386;2023-04-21T10:29:04;94815.03;;;18.80;45.14
27210;BME280;14721;42.668;23.386;2023-04-21T10:42:20;94811.84;;;19.07;44.53
27210;BME280;14721;42.668;23.386;2023-04-21T10:49:51;94801.88;;;19.61;44.15
27210;BME280;14721;42.668;23.386;2023-04-21T10:52:17;94809.06;;;19.54;44.12
27210;BME280;14721;42.668;23.386;2023-04-21T10:57:18;94817.34;;;19.22;45.43
27210;BME280;14721;42.668;23.386;2023-04-21T10:59:45;94813.13;;;19.19;43.41
27210;BME280;14721;42.668;23.386;2023-04-21T11:02:12;94801.78;;;19.24;43.50
27210;BME280;14721;42.668;23.386;2023-04-21T11:04:39;94794.59;;;19.61;43.10
27210;BME280;14721;42.668;23.386;2023-04-21T11:07:12;94806.53;;;19.75;42.15
27210;BME280;14721;42.668;23.386;2023-04-21T11:09:39;94802.41;;;19.79;41.52
27210;BME280;14721;42.668;23.386;2023-04-21T11:12:13;94804.09;;;20.02;40.87
27210;BME280;14721;42.668;23.386;2023-04-21T11:14:43;94807.47;;;19.82;44.95
27210;BME280;14721;42.668;23.386;2023-04-21T11:17:13;94813.59;;;19.00;46.97
27210;BME280;14721;42.668;23.386;2023-04-21T11:19:40;94824.00;;;18.81;46.91
27210;BME280;14721;42.668;23.386;2023-04-21T11:22:05;94812.13;;;18.90;46.14
27210;BME280;14721;42.668;23.386;2023-04-21T11:24:31;94798.88;;;18.95;45.76
27210;BME280;14721;42.668;23.386;2023-04-21T11:26:57;94804.25;;;19.03;46.34
27210;BME280;14721;42.668;23.386;2023-04-21T11:29:25;94807.00;;;19.25;46.84
27210;BME280;14721;42.668;23.386;2023-04-21T11:31:50;94800.91;;;19.23;46.38
27210;BME280;14721;42.668;23.386;2023-04-21T11:34:20;94804.84;;;19.29;46.93
27210;BME280;14721;42.668;23.386;2023-04-21T11:36:46;94799.13;;;19.46;46.30
27210;BME280;14721;42.668;23.386;2023-04-21T11:39:14;94793.38;;;19.86;43.72
27210;BME280;14721;42.668;23.386;2023-04-21T11:41:50;94796.88;;;20.32;44.06
27210;BME280;14721;42.668;23.386;2023-04-21T11:44:41;94803.16;;;20.32;44.27
27210;BME280;14721;42.668;23.386;2023-04-21T11:47:16;94804.66;;;19.98;44.87
27210;BME280;14721;42.668;23.386;2023-04-21T11:50:00;94807.13;;;19.85;44.91
27210;BME280;14721;42.668;23.386;2023-04-21T11:52:26;94805.75;;;19.89;45.35
27210;BME280;14721;42.668;23.386;2023-04-21T11:55:04;94797.00;;;19.56;45.89
27210;BME280;14721;42.668;23.386;2023-04-21T11:57:31;94800.00;;;19.39;45.83
27210;BME280;14721;42.668;23.386;2023-04-21T12:00:00;94805.94;;;19.04;45.87
27210;BME280;14721;42.668;23.386;2023-04-21T12:02:28;94798.56;;;18.90;45.26
27210;BME280;14721;42.668;23.386;2023-04-21T12:05:11;94800.00;;;18.69;44.57
27210;BME280;14721;42.668;23.386;2023-04-21T12:07:40;94803.59;;;18.62;44.75
27210;BME280;14721;42.668;23.386;2023-04-21T12:10:11;94794.31;;;18.95;44.34
27210;BME280;14721;42.668;23.386;2023-04-21T12:12:38;94799.06;;;18.93;43.88
27210;BME280;14721;42.668;23.386;2023-04-21T12:15:05;94793.47;;;18.95;43.64
27210;BME280;14721;42.668;23.386;2023-04-21T12:17:54;94805.28;;;19.32;42.27
27210;BME280;14721;42.668;23.386;2023-04-21T12:20:23;94799.41;;;19.29;41.30
27210;BME280;14721;42.668;23.386;2023-04-21T12:22:49;94800.44;;;19.20;42.23
27210;BME280;14721;42.668;23.386;2023-04-21T12:25:15;94808.94;;;19.17;41.27
27210;BME280;14721;42.668;23.386;2023-04-21T12:27:57;94797.31;;;19.39;40.94
27210;BME280;14721;42.668;23.386;2023-04-21T12:30:23;94810.56;;;19.26;41.17
27210;BME280;14721;42.668;23.386;2023-04-21T12:32:48;94807.28;;;19.08;41.30
27210;BME280;14721;42.668;23.386;2023-04-21T12:35:14;94800.69;;;19.02;42.06
27210;BME280;14721;42.668;23.386;2023-04-21T12:37:39;94806.94;;;19.11;42.00
27210;BME280;14721;42.668;23.386;2023-04-21T12:40:05;94798.66;;;19.04;42.06
27210;BME280;14721;42.668;23.386;2023-04-21T12:42:32;94804.00;;;18.90;42.59
27210;BME280;14721;42.668;23.386;2023-04-21T12:44:57;94805.00;;;18.89;42.46
27210;BME280;14721;42.668;23.386;2023-04-21T12:47:23;94797.41;;;18.84;42.93
27210;BME280;14721;42.668;23.386;2023-04-21T12:49:48;94800.84;;;19.09;43.07
27210;BME280;14721;42.668;23.386;2023-04-21T12:52:14;94811.75;;;18.93;42.99
27210;BME280;14721;42.668;23.386;2023-04-21T12:54:39;94802.56;;;18.63;43.61
27210;BME280;14721;42.668;23.386;2023-04-21T12:57:05;94791.44;;;18.50;44.29
27210;BME280;14721;42.668;23.386;2023-04-21T12:59:31;94785.72;;;18.45;44.34
27210;BME280;14721;42.668;23.386;2023-04-21T13:01:56;94788.56;;;18.51;43.04
27210;BME280;14721;42.668;23.386;2023-04-21T13:04:22;94792.59;;;18.55;43.20
27210;BME280;14721;42.668;23.386;2023-04-21T13:06:47;94795.63;;;18.68;42.81
27210;BME280;14721;42.668;23.386;2023-04-21T13:09:12;94788.53;;;18.98;42.62
27210;BME280;14721;42.668;23.386;2023-04-21T13:11:41;94778.09;;;19.18;41.69
27210;BME280;14721;42.668;23.386;2023-04-21T13:14:07;94784.94;;;19.06;40.27